首页
METAR-TAF:

METAR-TAF

机场 :

南锡, 法国

纬度: 48-35N, 经度: 005-58E, 海拔: 336米

当前天气观测

该预报发布于23分钟前的12:00 UTC
风速11节,风向南转西南
温度 4°C
湿度 87%
气压 1009 hPa
能见度10公里或以上
小雨

METAR: LFSO 111200Z AUTO 21011KT 9999 -RA OVC022/// ///TCU 04/02 Q1009 TEMPO 3000 RADZ BKN008 OVC015

时间: 13:23 (12:23 UTC)

预报

该预报发布于4小时和23分钟前的08:00 UTC
预报有效从11日的 09点(UTC)到 12日的 09点(UTC)
风速10节,风向
能見度: 8000
多云层高于1500英尺
阴天层高于4500英尺
小雨
短暂存在
从 11日的 09点(UTC)到 11日的 17点(UTC)
能見度: 3000
多云层高于800英尺
阴天层高于1500英尺
雨, 毛毛雨
短暂存在
从 11日的 15点(UTC)到 11日的 19点(UTC)
能見度: 1500
多云层高于200英尺
阴天层高于400英尺
毛毛雨
成为
从 11日的 19点(UTC)到 11日的 20点(UTC)
风速10节,风向西转西南
成为
从 11日的 20点(UTC)到 11日的 22点(UTC)
多云层高于1000英尺
短暂存在
从 12日的 00点(UTC)到 12日的 08点(UTC)
能見度: 3000
多云层高于1000英尺
散云层高于1500英尺, 塔状积云.
小阵雨, 雪

TAF: LFSO 110800Z 1109/1209 18010KT 8000 -RA BKN015 OVC045 TEMPO 1109/1117 3000 RADZ BKN008 OVC015 TEMPO 1115/1119 1500 DZ BKN002 OVC004 BECMG 1119/1120 24010KT BECMG 1120/1122 NSW BKN010 TEMPO 1200/1208 3000 -SHRASN BKN010 SCT015TCU

超过4000个机场的气象观测和天气预报(METAR&TAF报告)。

可查询的气象台以黄色和红色小点在地图上表示。

将鼠标移到小点上方,可查看气象台名称。

然后点击查看天气观测和预报。

如需切换地图:点击带黑十字的绿色按钮放大地图;点击带横线的绿色按钮缩小地图;或者点击绿色箭头查看邻近地区的地图。


METAR-TAF: